sensor_id;sensor_type;location;lat;lon;timestamp;P1;durP1;ratioP1;P2;durP2;ratioP2
20721;SDS011;10522;52.198;9.890;2023-08-12T00:00:19;8.80;;;3.50;;
20721;SDS011;10522;52.198;9.890;2023-08-12T00:02:45;5.57;;;3.60;;
20721;SDS011;10522;52.198;9.890;2023-08-12T00:05:11;8.27;;;3.10;;
20721;SDS011;10522;52.198;9.890;2023-08-12T00:07:38;6.90;;;4.17;;
20721;SDS011;10522;52.198;9.890;2023-08-12T00:10:07;7.40;;;3.80;;
20721;SDS011;10522;52.198;9.890;2023-08-12T00:12:34;7.57;;;3.80;;
20721;SDS011;10522;52.198;9.890;2023-08-12T00:15:01;9.50;;;3.17;;
20721;SDS011;10522;52.198;9.890;2023-08-12T00:17:29;8.73;;;3.93;;
20721;SDS011;10522;52.198;9.890;2023-08-12T00:19:55;8.00;;;4.00;;
20721;SDS011;10522;52.198;9.890;2023-08-12T00:22:21;5.83;;;3.23;;
20721;SDS011;10522;52.198;9.890;2023-08-12T00:24:47;5.37;;;3.27;;
20721;SDS011;10522;52.198;9.890;2023-08-12T00:27:13;5.60;;;3.60;;
20721;SDS011;10522;52.198;9.890;2023-08-12T00:29:39;4.80;;;3.40;;
20721;SDS011;10522;52.198;9.890;2023-08-12T00:32:05;13.60;;;3.90;;
20721;SDS011;10522;52.198;9.890;2023-08-12T00:34:30;7.97;;;3.67;;
20721;SDS011;10522;52.198;9.890;2023-08-12T00:36:56;7.83;;;3.43;;
20721;SDS011;10522;52.198;9.890;2023-08-12T00:39:22;7.07;;;4.00;;
20721;SDS011;10522;52.198;9.890;2023-08-12T00:41:48;9.80;;;3.67;;
20721;SDS011;10522;52.198;9.890;2023-08-12T00:44:13;7.40;;;3.67;;
20721;SDS011;10522;52.198;9.890;2023-08-12T00:46:39;10.57;;;4.10;;
20721;SDS011;10522;52.198;9.890;2023-08-12T00:49:06;6.60;;;3.70;;
20721;SDS011;10522;52.198;9.890;2023-08-12T00:51:32;9.33;;;3.47;;
20721;SDS011;10522;52.198;9.890;2023-08-12T00:53:58;5.93;;;3.83;;
20721;SDS011;10522;52.198;9.890;2023-08-12T00:56:25;6.23;;;3.40;;
20721;SDS011;10522;52.198;9.890;2023-08-12T00:58:52;4.43;;;3.40;;
20721;SDS011;10522;52.198;9.890;2023-08-12T01:01:18;7.10;;;3.10;;
20721;SDS011;10522;52.198;9.890;2023-08-12T01:03:45;4.77;;;3.23;;
20721;SDS011;10522;52.198;9.890;2023-08-12T01:06:11;9.67;;;3.20;;
20721;SDS011;10522;52.198;9.890;2023-08-12T01:08:37;5.10;;;3.60;;
20721;SDS011;10522;52.198;9.890;2023-08-12T01:11:06;4.03;;;3.07;;
20721;SDS011;10522;52.198;9.890;2023-08-12T01:16:34;8.97;;;3.93;;
20721;SDS011;10522;52.198;9.890;2023-08-12T01:19:05;9.53;;;3.23;;
20721;SDS011;10522;52.198;9.890;2023-08-12T01:21:34;6.70;;;3.27;;
20721;SDS011;10522;52.198;9.890;2023-08-12T01:24:05;7.00;;;3.60;;
20721;SDS011;10522;52.198;9.890;2023-08-12T01:26:30;8.60;;;3.17;;
20721;SDS011;10522;52.198;9.890;2023-08-12T01:28:56;6.37;;;3.67;;
20721;SDS011;10522;52.198;9.890;2023-08-12T01:31:33;5.23;;;2.87;;
20721;SDS011;10522;52.198;9.890;2023-08-12T01:36:36;4.87;;;3.33;;
20721;SDS011;10522;52.198;9.890;2023-08-12T01:39:04;11.23;;;3.60;;
20721;SDS011;10522;52.198;9.890;2023-08-12T01:41:34;9.57;;;3.80;;
20721;SDS011;10522;52.198;9.890;2023-08-12T01:44:01;7.60;;;3.03;;
20721;SDS011;10522;52.198;9.890;2023-08-12T01:46:27;6.70;;;3.50;;
20721;SDS011;10522;52.198;9.890;2023-08-12T01:48:53;6.47;;;3.57;;
20721;SDS011;10522;52.198;9.890;2023-08-12T01:51:19;6.73;;;3.40;;
20721;SDS011;10522;52.198;9.890;2023-08-12T01:53:44;6.60;;;3.30;;
20721;SDS011;10522;52.198;9.890;2023-08-12T01:56:10;5.80;;;3.63;;
20721;SDS011;10522;52.198;9.890;2023-08-12T01:58:36;4.70;;;3.70;;
20721;SDS011;10522;52.198;9.890;2023-08-12T02:01:01;8.90;;;3.90;;
20721;SDS011;10522;52.198;9.890;2023-08-12T02:03:27;7.10;;;3.37;;
20721;SDS011;10522;52.198;9.890;2023-08-12T02:05:52;8.00;;;3.50;;
20721;SDS011;10522;52.198;9.890;2023-08-12T02:08:18;9.30;;;3.73;;
20721;SDS011;10522;52.198;9.890;2023-08-12T02:10:44;10.67;;;3.60;;
20721;SDS011;10522;52.198;9.890;2023-08-12T02:13:09;7.07;;;3.50;;
20721;SDS011;10522;52.198;9.890;2023-08-12T02:15:35;10.07;;;4.00;;
20721;SDS011;10522;52.198;9.890;2023-08-12T02:18:01;9.30;;;3.80;;
20721;SDS011;10522;52.198;9.890;2023-08-12T02:20:26;11.10;;;3.73;;
20721;SDS011;10522;52.198;9.890;2023-08-12T02:22:52;10.07;;;3.70;;
20721;SDS011;10522;52.198;9.890;2023-08-12T02:25:18;4.73;;;3.63;;
20721;SDS011;10522;52.198;9.890;2023-08-12T02:27:43;8.30;;;3.43;;
20721;SDS011;10522;52.198;9.890;2023-08-12T02:30:09;6.37;;;3.77;;
20721;SDS011;10522;52.198;9.890;2023-08-12T02:32:35;4.97;;;3.40;;
20721;SDS011;10522;52.198;9.890;2023-08-12T02:35:01;4.40;;;2.87;;
20721;SDS011;10522;52.198;9.890;2023-08-12T02:37:26;8.77;;;3.63;;
20721;SDS011;10522;52.198;9.890;2023-08-12T02:39:52;8.63;;;4.17;;
20721;SDS011;10522;52.198;9.890;2023-08-12T02:42:18;9.57;;;3.37;;
20721;SDS011;10522;52.198;9.890;2023-08-12T02:44:43;10.10;;;3.33;;
20721;SDS011;10522;52.198;9.890;2023-08-12T02:47:09;7.97;;;3.47;;
20721;SDS011;10522;52.198;9.890;2023-08-12T02:49:34;4.40;;;3.30;;
20721;SDS011;10522;52.198;9.890;2023-08-12T02:52:00;7.60;;;3.40;;
20721;SDS011;10522;52.198;9.890;2023-08-12T02:54:26;5.33;;;3.10;;
20721;SDS011;10522;52.198;9.890;2023-08-12T02:56:51;8.47;;;3.93;;
20721;SDS011;10522;52.198;9.890;2023-08-12T02:59:17;10.53;;;4.20;;
20721;SDS011;10522;52.198;9.890;2023-08-12T03:01:42;11.17;;;4.60;;
20721;SDS011;10522;52.198;9.890;2023-08-12T03:04:08;11.80;;;4.80;;
20721;SDS011;10522;52.198;9.890;2023-08-12T03:06:34;11.47;;;4.17;;
20721;SDS011;10522;52.198;9.890;2023-08-12T03:08:59;8.53;;;4.33;;
20721;SDS011;10522;52.198;9.890;2023-08-12T03:11:25;8.97;;;4.20;;
20721;SDS011;10522;52.198;9.890;2023-08-12T03:13:50;6.93;;;4.20;;
20721;SDS011;10522;52.198;9.890;2023-08-12T03:16:16;6.90;;;4.23;;
20721;SDS011;10522;52.198;9.890;2023-08-12T03:18:42;13.57;;;4.50;;
20721;SDS011;10522;52.198;9.890;2023-08-12T03:21:08;8.20;;;4.30;;
20721;SDS011;10522;52.198;9.890;2023-08-12T03:23:35;7.57;;;3.93;;
20721;SDS011;10522;52.198;9.890;2023-08-12T03:26:01;9.03;;;4.10;;
20721;SDS011;10522;52.198;9.890;2023-08-12T03:28:26;10.30;;;4.37;;
20721;SDS011;10522;52.198;9.890;2023-08-12T03:30:52;5.97;;;3.90;;
20721;SDS011;10522;52.198;9.890;2023-08-12T03:33:18;9.33;;;4.77;;
20721;SDS011;10522;52.198;9.890;2023-08-12T03:35:45;4.40;;;3.60;;
20721;SDS011;10522;52.198;9.890;2023-08-12T03:38:11;5.53;;;3.50;;
20721;SDS011;10522;52.198;9.890;2023-08-12T03:40:40;8.70;;;3.97;;
20721;SDS011;10522;52.198;9.890;2023-08-12T03:43:06;6.73;;;3.57;;
20721;SDS011;10522;52.198;9.890;2023-08-12T03:45:32;9.17;;;3.53;;
20721;SDS011;10522;52.198;9.890;2023-08-12T03:48:04;5.97;;;3.60;;
20721;SDS011;10522;52.198;9.890;2023-08-12T03:50:32;6.30;;;3.77;;
20721;SDS011;10522;52.198;9.890;2023-08-12T03:52:59;4.20;;;3.30;;
20721;SDS011;10522;52.198;9.890;2023-08-12T03:55:24;7.93;;;3.70;;
20721;SDS011;10522;52.198;9.890;2023-08-12T03:57:50;5.70;;;3.63;;
20721;SDS011;10522;52.198;9.890;2023-08-12T04:00:16;5.60;;;3.80;;
20721;SDS011;10522;52.198;9.890;2023-08-12T04:02:42;6.43;;;3.33;;
20721;SDS011;10522;52.198;9.890;2023-08-12T04:05:08;6.37;;;3.33;;
20721;SDS011;10522;52.198;9.890;2023-08-12T04:07:35;6.60;;;3.97;;
20721;SDS011;10522;52.198;9.890;2023-08-12T04:10:01;6.37;;;3.90;;
20721;SDS011;10522;52.198;9.890;2023-08-12T04:12:27;3.90;;;3.30;;
20721;SDS011;10522;52.198;9.890;2023-08-12T04:14:52;6.27;;;3.33;;
20721;SDS011;10522;52.198;9.890;2023-08-12T04:17:18;9.13;;;4.07;;
20721;SDS011;10522;52.198;9.890;2023-08-12T04:19:44;8.53;;;4.53;;
20721;SDS011;10522;52.198;9.890;2023-08-12T04:22:09;5.47;;;3.93;;
20721;SDS011;10522;52.198;9.890;2023-08-12T04:24:35;10.53;;;4.07;;
20721;SDS011;10522;52.198;9.890;2023-08-12T04:27:00;4.03;;;3.53;;
20721;SDS011;10522;52.198;9.890;2023-08-12T04:29:26;9.03;;;3.93;;
20721;SDS011;10522;52.198;9.890;2023-08-12T04:31:52;9.77;;;3.57;;
20721;SDS011;10522;52.198;9.890;2023-08-12T04:34:18;6.67;;;4.10;;
20721;SDS011;10522;52.198;9.890;2023-08-12T04:36:43;5.67;;;4.63;;
20721;SDS011;10522;52.198;9.890;2023-08-12T04:39:09;5.93;;;3.83;;
20721;SDS011;10522;52.198;9.890;2023-08-12T04:41:35;6.57;;;3.90;;
20721;SDS011;10522;52.198;9.890;2023-08-12T04:44:03;7.40;;;4.03;;
20721;SDS011;10522;52.198;9.890;2023-08-12T04:46:29;7.10;;;3.83;;
20721;SDS011;10522;52.198;9.890;2023-08-12T04:48:55;5.47;;;3.90;;
20721;SDS011;10522;52.198;9.890;2023-08-12T04:51:21;7.33;;;4.33;;
20721;SDS011;10522;52.198;9.890;2023-08-12T04:53:47;9.87;;;4.47;;
20721;SDS011;10522;52.198;9.890;2023-08-12T04:56:12;7.83;;;4.00;;
20721;SDS011;10522;52.198;9.890;2023-08-12T04:58:38;5.10;;;4.30;;
20721;SDS011;10522;52.198;9.890;2023-08-12T05:01:04;7.20;;;4.70;;
20721;SDS011;10522;52.198;9.890;2023-08-12T05:03:30;8.17;;;4.27;;
20721;SDS011;10522;52.198;9.890;2023-08-12T05:11:06;10.27;;;4.80;;
20721;SDS011;10522;52.198;9.890;2023-08-12T05:18:43;6.30;;;4.87;;
20721;SDS011;10522;52.198;9.890;2023-08-12T05:21:08;11.00;;;4.70;;
20721;SDS011;10522;52.198;9.890;2023-08-12T05:23:34;9.03;;;4.63;;
20721;SDS011;10522;52.198;9.890;2023-08-12T05:26:00;9.27;;;4.53;;
20721;SDS011;10522;52.198;9.890;2023-08-12T05:28:25;12.23;;;4.70;;
20721;SDS011;10522;52.198;9.890;2023-08-12T05:30:51;8.03;;;5.07;;
20721;SDS011;10522;52.198;9.890;2023-08-12T05:35:56;7.83;;;4.13;;
20721;SDS011;10522;52.198;9.890;2023-08-12T05:38:22;9.00;;;4.70;;
20721;SDS011;10522;52.198;9.890;2023-08-12T05:40:57;6.90;;;4.33;;
20721;SDS011;10522;52.198;9.890;2023-08-12T05:43:22;7.47;;;4.53;;
20721;SDS011;10522;52.198;9.890;2023-08-12T06:01:23;9.67;;;4.53;;
20721;SDS011;10522;52.198;9.890;2023-08-12T06:03:49;18.20;;;4.43;;
20721;SDS011;10522;52.198;9.890;2023-08-12T06:06:14;7.93;;;4.47;;
20721;SDS011;10522;52.198;9.890;2023-08-12T06:08:40;7.40;;;4.27;;
20721;SDS011;10522;52.198;9.890;2023-08-12T06:11:06;9.90;;;4.70;;
20721;SDS011;10522;52.198;9.890;2023-08-12T06:13:31;8.20;;;4.67;;
20721;SDS011;10522;52.198;9.890;2023-08-12T06:15:57;7.37;;;4.20;;
20721;SDS011;10522;52.198;9.890;2023-08-12T06:18:22;8.67;;;4.73;;
20721;SDS011;10522;52.198;9.890;2023-08-12T06:20:48;8.13;;;4.50;;
20721;SDS011;10522;52.198;9.890;2023-08-12T06:23:15;8.40;;;4.43;;
20721;SDS011;10522;52.198;9.890;2023-08-12T06:25:41;7.67;;;4.67;;
20721;SDS011;10522;52.198;9.890;2023-08-12T06:28:08;6.67;;;4.60;;
20721;SDS011;10522;52.198;9.890;2023-08-12T06:30:35;10.47;;;5.53;;
20721;SDS011;10522;52.198;9.890;2023-08-12T06:33:01;5.70;;;4.90;;
20721;SDS011;10522;52.198;9.890;2023-08-12T06:35:26;8.43;;;4.70;;
20721;SDS011;10522;52.198;9.890;2023-08-12T06:37:55;5.60;;;4.70;;
20721;SDS011;10522;52.198;9.890;2023-08-12T06:42:52;5.67;;;4.20;;
20721;SDS011;10522;52.198;9.890;2023-08-12T06:45:18;6.43;;;4.10;;
20721;SDS011;10522;52.198;9.890;2023-08-12T06:47:43;9.77;;;4.93;;
20721;SDS011;10522;52.198;9.890;2023-08-12T06:50:09;5.90;;;4.70;;
20721;SDS011;10522;52.198;9.890;2023-08-12T06:52:35;8.30;;;4.13;;
20721;SDS011;10522;52.198;9.890;2023-08-12T06:55:01;5.10;;;4.40;;
20721;SDS011;10522;52.198;9.890;2023-08-12T06:57:27;10.73;;;4.90;;
20721;SDS011;10522;52.198;9.890;2023-08-12T06:59:52;14.63;;;5.17;;
20721;SDS011;10522;52.198;9.890;2023-08-12T07:02:18;10.27;;;4.70;;
20721;SDS011;10522;52.198;9.890;2023-08-12T07:04:43;10.33;;;5.07;;
20721;SDS011;10522;52.198;9.890;2023-08-12T07:07:09;6.83;;;4.33;;
20721;SDS011;10522;52.198;9.890;2023-08-12T07:09:35;6.73;;;4.70;;
20721;SDS011;10522;52.198;9.890;2023-08-12T07:12:00;8.53;;;4.30;;
20721;SDS011;10522;52.198;9.890;2023-08-12T07:14:29;8.37;;;4.67;;
20721;SDS011;10522;52.198;9.890;2023-08-12T07:16:54;9.80;;;4.63;;
20721;SDS011;10522;52.198;9.890;2023-08-12T07:19:20;7.13;;;4.73;;
20721;SDS011;10522;52.198;9.890;2023-08-12T07:21:46;7.97;;;5.10;;
20721;SDS011;10522;52.198;9.890;2023-08-12T07:24:12;7.77;;;4.97;;
20721;SDS011;10522;52.198;9.890;2023-08-12T07:26:38;11.23;;;6.50;;
20721;SDS011;10522;52.198;9.890;2023-08-12T07:29:03;10.57;;;5.20;;
20721;SDS011;10522;52.198;9.890;2023-08-12T07:31:29;10.63;;;5.20;;
20721;SDS011;10522;52.198;9.890;2023-08-12T07:33:55;7.57;;;4.43;;
20721;SDS011;10522;52.198;9.890;2023-08-12T07:36:20;10.30;;;4.80;;
20721;SDS011;10522;52.198;9.890;2023-08-12T07:38:46;7.53;;;4.70;;
20721;SDS011;10522;52.198;9.890;2023-08-12T07:41:12;8.60;;;4.87;;
20721;SDS011;10522;52.198;9.890;2023-08-12T07:43:37;9.10;;;5.00;;
20721;SDS011;10522;52.198;9.890;2023-08-12T07:46:03;7.53;;;5.43;;
20721;SDS011;10522;52.198;9.890;2023-08-12T07:48:29;7.20;;;4.80;;
20721;SDS011;10522;52.198;9.890;2023-08-12T07:50:56;9.47;;;5.03;;
20721;SDS011;10522;52.198;9.890;2023-08-12T07:53:22;7.70;;;5.60;;
20721;SDS011;10522;52.198;9.890;2023-08-12T07:55:56;5.47;;;4.43;;
20721;SDS011;10522;52.198;9.890;2023-08-12T09:35:40;9.97;;;5.47;;
20721;SDS011;10522;52.198;9.890;2023-08-12T09:38:07;12.50;;;6.20;;
20721;SDS011;10522;52.198;9.890;2023-08-12T09:40:36;9.73;;;6.03;;
20721;SDS011;10522;52.198;9.890;2023-08-12T09:43:03;8.67;;;4.93;;
20721;SDS011;10522;52.198;9.890;2023-08-12T09:45:34;7.50;;;5.80;;
20721;SDS011;10522;52.198;9.890;2023-08-12T09:48:00;8.00;;;5.03;;
20721;SDS011;10522;52.198;9.890;2023-08-12T09:50:26;7.20;;;5.23;;
20721;SDS011;10522;52.198;9.890;2023-08-12T09:52:53;12.83;;;5.57;;
20721;SDS011;10522;52.198;9.890;2023-08-12T09:55:21;11.67;;;5.90;;
20721;SDS011;10522;52.198;9.890;2023-08-12T09:57:49;8.47;;;5.67;;
20721;SDS011;10522;52.198;9.890;2023-08-12T10:00:20;9.60;;;5.37;;
20721;SDS011;10522;52.198;9.890;2023-08-12T10:02:49;8.30;;;5.87;;
20721;SDS011;10522;52.198;9.890;2023-08-12T10:05:27;10.97;;;6.03;;
20721;SDS011;10522;52.198;9.890;2023-08-12T10:07:53;24.27;;;7.13;;
20721;SDS011;10522;52.198;9.890;2023-08-12T10:10:20;13.67;;;5.57;;
20721;SDS011;10522;52.198;9.890;2023-08-12T10:12:49;8.83;;;5.13;;
20721;SDS011;10522;52.198;9.890;2023-08-12T10:15:15;7.23;;;4.97;;
20721;SDS011;10522;52.198;9.890;2023-08-12T10:17:41;5.90;;;4.70;;
20721;SDS011;10522;52.198;9.890;2023-08-12T10:20:12;9.33;;;5.10;;
20721;SDS011;10522;52.198;9.890;2023-08-12T10:22:39;9.67;;;5.77;;
20721;SDS011;10522;52.198;9.890;2023-08-12T10:25:07;10.77;;;6.03;;
20721;SDS011;10522;52.198;9.890;2023-08-12T10:27:34;10.60;;;5.40;;
20721;SDS011;10522;52.198;9.890;2023-08-12T10:30:02;8.37;;;5.40;;
20721;SDS011;10522;52.198;9.890;2023-08-12T10:32:30;7.30;;;5.20;;
20721;SDS011;10522;52.198;9.890;2023-08-12T10:34:57;9.67;;;6.17;;
20721;SDS011;10522;52.198;9.890;2023-08-12T10:37:26;10.43;;;6.03;;
20721;SDS011;10522;52.198;9.890;2023-08-12T10:39:56;7.07;;;5.20;;
20721;SDS011;10522;52.198;9.890;2023-08-12T10:45:11;5.70;;;4.80;;
20721;SDS011;10522;52.198;9.890;2023-08-12T10:47:41;7.83;;;5.50;;
20721;SDS011;10522;52.198;9.890;2023-08-12T10:50:20;7.07;;;5.13;;
20721;SDS011;10522;52.198;9.890;2023-08-12T10:52:47;8.43;;;4.83;;
20721;SDS011;10522;52.198;9.890;2023-08-12T10:55:25;12.43;;;5.17;;
20721;SDS011;10522;52.198;9.890;2023-08-12T10:57:57;7.90;;;4.77;;
20721;SDS011;10522;52.198;9.890;2023-08-12T11:00:27;8.37;;;5.27;;
20721;SDS011;10522;52.198;9.890;2023-08-12T11:02:57;6.33;;;4.73;;
20721;SDS011;10522;52.198;9.890;2023-08-12T11:05:23;6.80;;;5.03;;
20721;SDS011;10522;52.198;9.890;2023-08-12T11:07:56;5.53;;;4.27;;
20721;SDS011;10522;52.198;9.890;2023-08-12T11:10:25;6.30;;;3.97;;
20721;SDS011;10522;52.198;9.890;2023-08-12T11:15:34;10.00;;;4.80;;
20721;SDS011;10522;52.198;9.890;2023-08-12T11:20:29;4.50;;;4.10;;
20721;SDS011;10522;52.198;9.890;2023-08-12T11:22:55;8.03;;;5.23;;
20721;SDS011;10522;52.198;9.890;2023-08-12T11:25:23;6.30;;;4.10;;
20721;SDS011;10522;52.198;9.890;2023-08-12T11:27:49;6.43;;;3.93;;
20721;SDS011;10522;52.198;9.890;2023-08-12T11:30:16;6.93;;;4.40;;
20721;SDS011;10522;52.198;9.890;2023-08-12T11:32:44;8.07;;;3.70;;
20721;SDS011;10522;52.198;9.890;2023-08-12T11:35:11;7.70;;;4.47;;
20721;SDS011;10522;52.198;9.890;2023-08-12T11:37:38;5.93;;;3.50;;
20721;SDS011;10522;52.198;9.890;2023-08-12T11:40:04;7.07;;;4.03;;
20721;SDS011;10522;52.198;9.890;2023-08-12T11:42:33;4.63;;;4.23;;
20721;SDS011;10522;52.198;9.890;2023-08-12T11:45:00;6.97;;;4.83;;
20721;SDS011;10522;52.198;9.890;2023-08-12T11:47:25;8.80;;;4.57;;
20721;SDS011;10522;52.198;9.890;2023-08-12T11:49:52;5.60;;;4.10;;
20721;SDS011;10522;52.198;9.890;2023-08-12T11:52:19;6.20;;;3.83;;
20721;SDS011;10522;52.198;9.890;2023-08-12T11:54:45;6.77;;;4.10;;
20721;SDS011;10522;52.198;9.890;2023-08-12T11:57:11;5.53;;;3.87;;
20721;SDS011;10522;52.198;9.890;2023-08-12T11:59:37;4.07;;;3.40;;
20721;SDS011;10522;52.198;9.890;2023-08-12T12:02:02;5.90;;;3.90;;
20721;SDS011;10522;52.198;9.890;2023-08-12T12:04:30;4.73;;;3.50;;
20721;SDS011;10522;52.198;9.890;2023-08-12T12:06:56;6.83;;;3.87;;
20721;SDS011;10522;52.198;9.890;2023-08-12T12:09:22;6.67;;;4.17;;
20721;SDS011;10522;52.198;9.890;2023-08-12T12:11:51;11.60;;;3.97;;
20721;SDS011;10522;52.198;9.890;2023-08-12T12:14:18;8.13;;;3.77;;
20721;SDS011;10522;52.198;9.890;2023-08-12T12:16:44;6.40;;;3.97;;
20721;SDS011;10522;52.198;9.890;2023-08-12T12:19:16;8.33;;;4.20;;
20721;SDS011;10522;52.198;9.890;2023-08-12T12:21:44;5.07;;;3.60;;
20721;SDS011;10522;52.198;9.890;2023-08-12T12:24:11;4.13;;;3.73;;
20721;SDS011;10522;52.198;9.890;2023-08-12T12:26:37;9.57;;;4.17;;
20721;SDS011;10522;52.198;9.890;2023-08-12T12:29:03;3.60;;;3.20;;
20721;SDS011;10522;52.198;9.890;2023-08-12T12:31:33;5.03;;;3.70;;
20721;SDS011;10522;52.198;9.890;2023-08-12T12:34:01;3.90;;;3.23;;
20721;SDS011;10522;52.198;9.890;2023-08-12T12:36:28;4.67;;;3.57;;
20721;SDS011;10522;52.198;9.890;2023-08-12T12:38:54;6.37;;;3.20;;
20721;SDS011;10522;52.198;9.890;2023-08-12T12:41:20;10.37;;;4.10;;
20721;SDS011;10522;52.198;9.890;2023-08-12T12:43:45;3.77;;;3.23;;
20721;SDS011;10522;52.198;9.890;2023-08-12T12:46:11;9.60;;;3.60;;
20721;SDS011;10522;52.198;9.890;2023-08-12T12:48:37;3.43;;;3.13;;
20721;SDS011;10522;52.198;9.890;2023-08-12T12:51:02;3.57;;;3.10;;
20721;SDS011;10522;52.198;9.890;2023-08-12T12:53:28;7.77;;;3.70;;
20721;SDS011;10522;52.198;9.890;2023-08-12T12:55:54;4.43;;;3.53;;
20721;SDS011;10522;52.198;9.890;2023-08-12T12:58:21;7.53;;;4.07;;
20721;SDS011;10522;52.198;9.890;2023-08-12T13:00:48;12.00;;;4.27;;
20721;SDS011;10522;52.198;9.890;2023-08-12T13:03:15;16.00;;;5.87;;
20721;SDS011;10522;52.198;9.890;2023-08-12T13:05:42;19.80;;;6.50;;
20721;SDS011;10522;52.198;9.890;2023-08-12T13:08:08;11.50;;;5.77;;
20721;SDS011;10522;52.198;9.890;2023-08-12T13:10:33;11.40;;;4.93;;
20721;SDS011;10522;52.198;9.890;2023-08-12T13:12:59;7.00;;;3.20;;
20721;SDS011;10522;52.198;9.890;2023-08-12T13:15:25;5.60;;;2.37;;
20721;SDS011;10522;52.198;9.890;2023-08-12T13:17:51;4.20;;;2.60;;
20721;SDS011;10522;52.198;9.890;2023-08-12T13:20:17;3.30;;;2.10;;
20721;SDS011;10522;52.198;9.890;2023-08-12T13:22:43;5.13;;;2.50;;
20721;SDS011;10522;52.198;9.890;2023-08-12T13:25:08;3.37;;;1.83;;
20721;SDS011;10522;52.198;9.890;2023-08-12T13:27:34;2.23;;;1.60;;
20721;SDS011;10522;52.198;9.890;2023-08-12T13:29:59;1.97;;;1.67;;
20721;SDS011;10522;52.198;9.890;2023-08-12T13:32:25;2.13;;;1.73;;
20721;SDS011;10522;52.198;9.890;2023-08-12T13:34:51;4.40;;;2.37;;
20721;SDS011;10522;52.198;9.890;2023-08-12T13:37:17;2.60;;;2.40;;
20721;SDS011;10522;52.198;9.890;2023-08-12T13:39:43;2.63;;;1.97;;
20721;SDS011;10522;52.198;9.890;2023-08-12T13:42:11;2.23;;;1.80;;
20721;SDS011;10522;52.198;9.890;2023-08-12T13:44:38;4.67;;;1.87;;
20721;SDS011;10522;52.198;9.890;2023-08-12T13:47:03;3.07;;;2.03;;
20721;SDS011;10522;52.198;9.890;2023-08-12T13:49:29;3.70;;;2.10;;
20721;SDS011;10522;52.198;9.890;2023-08-12T13:51:54;2.63;;;2.10;;
20721;SDS011;10522;52.198;9.890;2023-08-12T13:54:21;5.53;;;2.23;;
20721;SDS011;10522;52.198;9.890;2023-08-12T13:56:47;2.47;;;2.27;;
20721;SDS011;10522;52.198;9.890;2023-08-12T13:59:17;2.20;;;2.00;;
20721;SDS011;10522;52.198;9.890;2023-08-12T14:01:44;3.00;;;2.00;;
20721;SDS011;10522;52.198;9.890;2023-08-12T14:04:11;5.10;;;2.03;;
20721;SDS011;10522;52.198;9.890;2023-08-12T14:06:37;2.50;;;2.23;;
20721;SDS011;10522;52.198;9.890;2023-08-12T14:09:02;2.63;;;2.20;;
20721;SDS011;10522;52.198;9.890;2023-08-12T14:11:28;5.60;;;1.93;;
20721;SDS011;10522;52.198;9.890;2023-08-12T14:13:56;3.60;;;2.10;;
20721;SDS011;10522;52.198;9.890;2023-08-12T14:16:22;3.47;;;2.40;;
20721;SDS011;10522;52.198;9.890;2023-08-12T14:18:48;3.33;;;1.90;;
20721;SDS011;10522;52.198;9.890;2023-08-12T14:21:13;3.20;;;1.80;;
20721;SDS011;10522;52.198;9.890;2023-08-12T14:23:39;2.50;;;1.80;;
20721;SDS011;10522;52.198;9.890;2023-08-12T14:26:05;2.63;;;2.07;;
20721;SDS011;10522;52.198;9.890;2023-08-12T14:28:30;2.13;;;1.70;;
20721;SDS011;10522;52.198;9.890;2023-08-12T14:30:56;2.57;;;1.90;;
20721;SDS011;10522;52.198;9.890;2023-08-12T14:33:21;4.30;;;1.80;;
20721;SDS011;10522;52.198;9.890;2023-08-12T14:35:50;3.53;;;1.77;;
20721;SDS011;10522;52.198;9.890;2023-08-12T14:38:16;2.47;;;1.90;;
20721;SDS011;10522;52.198;9.890;2023-08-12T14:40:42;3.53;;;2.17;;
20721;SDS011;10522;52.198;9.890;2023-08-12T14:43:11;2.73;;;1.90;;
20721;SDS011;10522;52.198;9.890;2023-08-12T14:45:37;1.70;;;1.60;;
20721;SDS011;10522;52.198;9.890;2023-08-12T14:48:02;2.60;;;2.20;;
20721;SDS011;10522;52.198;9.890;2023-08-12T14:50:31;2.77;;;1.80;;
20721;SDS011;10522;52.198;9.890;2023-08-12T14:52:57;2.07;;;1.97;;
20721;SDS011;10522;52.198;9.890;2023-08-12T14:55:22;2.70;;;2.10;;
20721;SDS011;10522;52.198;9.890;2023-08-12T14:57:48;3.60;;;2.00;;
20721;SDS011;10522;52.198;9.890;2023-08-12T15:00:14;3.37;;;2.03;;
20721;SDS011;10522;52.198;9.890;2023-08-12T15:02:39;2.50;;;2.10;;
20721;SDS011;10522;52.198;9.890;2023-08-12T15:05:05;2.23;;;1.90;;
20721;SDS011;10522;52.198;9.890;2023-08-12T15:07:31;2.73;;;2.00;;
20721;SDS011;10522;52.198;9.890;2023-08-12T15:09:57;1.80;;;1.70;;
20721;SDS011;10522;52.198;9.890;2023-08-12T15:12:24;3.10;;;2.30;;
20721;SDS011;10522;52.198;9.890;2023-08-12T15:14:52;4.23;;;3.63;;
20721;SDS011;10522;52.198;9.890;2023-08-12T15:17:18;2.07;;;1.90;;
20721;SDS011;10522;52.198;9.890;2023-08-12T15:19:43;1.83;;;1.73;;
20721;SDS011;10522;52.198;9.890;2023-08-12T15:22:09;2.00;;;1.87;;
20721;SDS011;10522;52.198;9.890;2023-08-12T15:24:34;2.00;;;1.90;;
20721;SDS011;10522;52.198;9.890;2023-08-12T15:27:00;2.40;;;1.87;;
20721;SDS011;10522;52.198;9.890;2023-08-12T15:29:26;4.57;;;2.27;;
20721;SDS011;10522;52.198;9.890;2023-08-12T15:31:51;2.23;;;1.90;;
20721;SDS011;10522;52.198;9.890;2023-08-12T15:34:17;2.40;;;1.77;;
20721;SDS011;10522;52.198;9.890;2023-08-12T15:36:43;2.87;;;1.53;;
20721;SDS011;10522;52.198;9.890;2023-08-12T15:39:08;5.10;;;1.00;;
20721;SDS011;10522;52.198;9.890;2023-08-12T15:41:34;6.93;;;1.10;;
20721;SDS011;10522;52.198;9.890;2023-08-12T15:44:06;3.13;;;0.70;;
20721;SDS011;10522;52.198;9.890;2023-08-12T15:46:31;2.77;;;1.13;;
20721;SDS011;10522;52.198;9.890;2023-08-12T15:48:57;3.90;;;1.27;;
20721;SDS011;10522;52.198;9.890;2023-08-12T15:51:22;1.27;;;1.00;;
20721;SDS011;10522;52.198;9.890;2023-08-12T15:53:48;1.13;;;1.03;;
20721;SDS011;10522;52.198;9.890;2023-08-12T15:56:14;1.70;;;0.83;;
20721;SDS011;10522;52.198;9.890;2023-08-12T15:58:39;0.93;;;0.90;;
20721;SDS011;10522;52.198;9.890;2023-08-12T16:01:05;1.37;;;0.90;;
20721;SDS011;10522;52.198;9.890;2023-08-12T16:03:31;1.20;;;1.10;;
20721;SDS011;10522;52.198;9.890;2023-08-12T16:05:57;2.57;;;0.80;;
20721;SDS011;10522;52.198;9.890;2023-08-12T16:08:26;1.33;;;1.23;;
20721;SDS011;10522;52.198;9.890;2023-08-12T16:10:52;3.93;;;1.10;;
20721;SDS011;10522;52.198;9.890;2023-08-12T16:13:18;3.53;;;3.13;;
20721;SDS011;10522;52.198;9.890;2023-08-12T16:15:43;2.97;;;1.40;;
20721;SDS011;10522;52.198;9.890;2023-08-12T16:18:09;1.87;;;1.33;;
20721;SDS011;10522;52.198;9.890;2023-08-12T16:20:34;2.87;;;1.70;;
20721;SDS011;10522;52.198;9.890;2023-08-12T16:23:00;4.57;;;1.53;;
20721;SDS011;10522;52.198;9.890;2023-08-12T16:25:26;1.67;;;1.33;;
20721;SDS011;10522;52.198;9.890;2023-08-12T16:27:51;2.83;;;1.80;;
20721;SDS011;10522;52.198;9.890;2023-08-12T16:30:17;2.40;;;2.10;;
20721;SDS011;10522;52.198;9.890;2023-08-12T16:32:43;4.17;;;2.10;;
20721;SDS011;10522;52.198;9.890;2023-08-12T16:35:08;2.13;;;1.93;;
20721;SDS011;10522;52.198;9.890;2023-08-12T16:37:35;2.43;;;2.20;;
20721;SDS011;10522;52.198;9.890;2023-08-12T16:40:01;2.77;;;2.43;;
20721;SDS011;10522;52.198;9.890;2023-08-12T16:42:26;4.77;;;2.20;;
20721;SDS011;10522;52.198;9.890;2023-08-12T16:44:52;3.80;;;2.80;;
20721;SDS011;10522;52.198;9.890;2023-08-12T16:47:17;5.07;;;3.27;;
20721;SDS011;10522;52.198;9.890;2023-08-12T16:49:43;3.70;;;2.93;;
20721;SDS011;10522;52.198;9.890;2023-08-12T16:52:09;3.27;;;2.97;;
20721;SDS011;10522;52.198;9.890;2023-08-12T16:54:34;4.73;;;3.00;;
20721;SDS011;10522;52.198;9.890;2023-08-12T16:57:00;3.27;;;2.77;;
20721;SDS011;10522;52.198;9.890;2023-08-12T16:59:25;3.03;;;2.43;;
20721;SDS011;10522;52.198;9.890;2023-08-12T17:01:51;3.50;;;2.73;;